Time;durP1;ratioP1;P1;durP2;ratioP2;P2;SDS_P1;SDS_P2;PMS_P1;PMS_P2;Temp;Humidity;BMP_temperature;BMP_pressure;BME280_temperature;BME280_humidity;BME280_pressure;Samples;Min_cycle;Max_cycle;Signal;HPM_P1;HPM_P2
2022/06/20 00:01:17;;;;;;;8.73;1.73;;;16.20;99.90;;;;;;7344414;19;108692;-83
2022/06/20 00:03:48;;;;;;;10.90;1.80;;;16.20;99.90;;;;;;7342251;19;108296;-83
2022/06/20 00:06:18;;;;;;;10.27;1.58;;;16.30;99.90;;;;;;7345705;19;109056;-83
2022/06/20 00:08:49;;;;;;;11.70;1.90;;;16.50;99.90;;;;;;7343323;19;108394;-83
2022/06/20 00:11:19;;;;;;;10.95;2.00;;;16.50;99.90;;;;;;7344902;19;107546;-83
2022/06/20 00:13:51;;;;;;;10.98;2.03;;;16.70;99.90;;;;;;7345820;19;108985;-84
2022/06/20 00:16:19;;;;;;;11.52;2.20;;;16.70;99.90;;;;;;7342831;19;108255;-83
2022/06/20 00:18:47;;;;;;;10.38;2.00;;;16.80;99.90;;;;;;7340970;19;109226;-84
2022/06/20 00:21:17;;;;;;;8.98;2.10;;;16.90;99.90;;;;;;7342309;19;108898;-84
2022/06/20 00:23:44;;;;;;;16.35;2.30;;;17.00;99.90;;;;;;7341714;19;108528;-84
2022/06/20 00:26:11;;;;;;;6.72;1.65;;;17.00;99.90;;;;;;7341645;19;109324;-83
2022/06/20 00:28:38;;;;;;;10.20;2.15;;;17.00;99.90;;;;;;7342407;19;107981;-83
2022/06/20 00:31:05;;;;;;;10.48;1.90;;;17.10;99.90;;;;;;7341011;19;110902;-83
2022/06/20 00:33:32;;;;;;;9.10;1.83;;;17.10;99.90;;;;;;7339875;19;110359;-83
2022/06/20 00:36:00;;;;;;;11.57;2.20;;;17.10;99.90;;;;;;7345490;19;108237;-84
2022/06/20 00:38:28;;;;;;;14.38;2.28;;;16.90;99.90;;;;;;7340912;19;108865;-84
2022/06/20 00:40:59;;;;;;;14.60;2.25;;;16.70;99.90;;;;;;7342148;19;107984;-84
2022/06/20 00:43:35;;;;;;;8.07;1.98;;;16.60;99.90;;;;;;7342749;19;108322;-83
2022/06/20 00:46:07;;;;;;;11.70;2.13;;;16.40;99.90;;;;;;7342244;19;109560;-84
2022/06/20 00:48:44;;;;;;;14.50;2.13;;;16.30;99.90;;;;;;7341134;19;108055;-84
2022/06/20 00:51:32;;;;;;;13.27;2.17;;;16.20;99.90;;;;;;7341981;19;110941;-84
2022/06/20 00:54:11;;;;;;;10.38;2.60;;;16.20;99.90;;;;;;7342018;19;109332;-84
2022/06/20 00:56:50;;;;;;;12.38;2.20;;;16.10;99.90;;;;;;7342010;19;107564;-84
2022/06/20 00:59:41;;;;;;;8.57;2.10;;;16.10;99.90;;;;;;7347916;19;108372;-84
2022/06/20 01:02:08;;;;;;;12.57;2.55;;;16.00;99.90;;;;;;7341654;19;113001;-84
2022/06/20 01:04:48;;;;;;;13.10;2.25;;;16.00;99.90;;;;;;7341397;19;107150;-84
2022/06/20 01:07:24;;;;;;;10.98;2.13;;;16.00;99.90;;;;;;7341792;19;109246;-83
2022/06/20 01:09:56;;;;;;;10.63;1.90;;;15.90;99.90;;;;;;7340883;19;107324;-85
2022/06/20 01:12:27;;;;;;;10.60;2.08;;;15.90;99.90;;;;;;7339984;19;108937;-84
2022/06/20 01:14:55;;;;;;;8.35;1.90;;;16.00;99.90;;;;;;7336616;19;109034;-84
2022/06/20 01:17:36;;;;;;;8.35;1.77;;;16.20;99.90;;;;;;7339718;19;108172;-83
2022/06/20 01:20:08;;;;;;;12.13;2.17;;;16.30;99.90;;;;;;7341452;19;108129;-84
2022/06/20 01:23:06;;;;;;;12.80;2.00;;;16.30;99.90;;;;;;7345655;19;108165;-84
2022/06/20 01:25:49;;;;;;;7.30;1.92;;;16.30;99.90;;;;;;7340711;19;108273;-84
2022/06/20 01:28:20;;;;;;;17.33;2.42;;;16.30;99.90;;;;;;7336993;19;109141;-85
2022/06/20 01:30:48;;;;;;;9.10;2.10;;;16.40;99.90;;;;;;7338177;19;107949;-84
2022/06/20 01:33:19;;;;;;;13.73;2.50;;;16.40;99.90;;;;;;7338912;19;108946;-84
2022/06/20 01:38:35;;;;;;;12.35;2.53;;;16.40;99.90;;;;;;7340706;19;111506;-85
2022/06/20 01:43:48;;;;;;;9.82;2.35;;;16.30;99.90;;;;;;7345467;19;109490;-84
2022/06/20 01:46:17;;;;;;;14.85;2.58;;;16.30;99.90;;;;;;7338319;19;108249;-84
2022/06/20 01:48:51;;;;;;;16.10;2.40;;;16.40;99.90;;;;;;7339510;19;109235;-84
2022/06/20 01:51:26;;;;;;;12.82;2.65;;;16.30;99.90;;;;;;7341441;19;107982;-84
2022/06/20 01:53:55;;;;;;;11.80;2.40;;;16.20;99.90;;;;;;7339226;19;108314;-84
2022/06/20 01:56:26;;;;;;;8.18;1.88;;;16.10;99.90;;;;;;7338230;19;108978;-85
2022/06/20 01:59:00;;;;;;;11.48;2.78;;;16.00;99.90;;;;;;7340332;19;108231;-85
2022/06/20 02:01:30;;;;;;;9.77;2.10;;;16.00;99.90;;;;;;7340541;19;108431;-84
2022/06/20 02:03:57;;;;;;;12.60;2.15;;;16.00;99.90;;;;;;7339931;19;110391;-84
2022/06/20 02:06:25;;;;;;;8.55;2.35;;;16.00;99.90;;;;;;7345822;19;108181;-84
2022/06/20 02:08:54;;;;;;;7.65;1.90;;;16.10;99.90;;;;;;7339786;19;108943;-84
2022/06/20 02:11:24;;;;;;;11.18;2.10;;;16.00;99.90;;;;;;7339689;19;108373;-83
2022/06/20 02:13:58;;;;;;;11.52;2.25;;;15.80;99.90;;;;;;7338039;19;110949;-84
2022/06/20 02:16:28;;;;;;;10.88;1.95;;;15.70;99.90;;;;;;7338272;19;108939;-85
2022/06/20 02:19:02;;;;;;;10.10;2.10;;;15.50;99.90;;;;;;7338095;19;108923;-85
2022/06/20 02:21:33;;;;;;;8.95;1.55;;;15.60;99.90;;;;;;7339383;19;108477;-83
2022/06/20 02:24:15;;;;;;;7.53;1.67;;;15.70;99.90;;;;;;7338998;19;109445;-84
2022/06/20 02:26:47;;;;;;;5.90;1.60;;;15.80;99.90;;;;;;7339977;19;109783;-84
2022/06/20 02:29:22;;;;;;;12.60;1.80;;;15.80;99.90;;;;;;7352163;19;108741;-84
2022/06/20 02:31:57;;;;;;;13.52;2.08;;;15.70;99.90;;;;;;7345263;19;108395;-84
2022/06/20 02:34:28;;;;;;;9.27;1.65;;;15.50;99.90;;;;;;7345151;19;108153;-84
2022/06/20 02:37:01;;;;;;;8.23;1.40;;;15.40;99.90;;;;;;7344506;19;111217;-84
2022/06/20 02:39:29;;;;;;;9.77;1.67;;;15.40;99.90;;;;;;7346027;19;108486;-84
2022/06/20 02:42:03;;;;;;;5.53;1.55;;;15.50;99.90;;;;;;7346592;19;108632;-85
2022/06/20 02:44:31;;;;;;;11.68;1.75;;;15.70;99.90;;;;;;7345761;19;107824;-84
2022/06/20 02:47:03;;;;;;;8.93;2.00;;;15.70;99.90;;;;;;7346584;19;108254;-84
2022/06/20 02:49:32;;;;;;;7.38;1.70;;;15.70;99.90;;;;;;7345446;19;108553;-84
2022/06/20 02:52:01;;;;;;;7.70;1.63;;;15.70;99.90;;;;;;7350581;19;109235;-84
2022/06/20 02:54:34;;;;;;;10.82;1.80;;;15.60;99.90;;;;;;7343372;19;108464;-85
2022/06/20 02:57:20;;;;;;;12.40;1.70;;;15.60;99.90;;;;;;7346078;19;108874;-84
2022/06/20 02:59:52;;;;;;;7.93;1.70;;;15.60;99.90;;;;;;7345450;19;108352;-84
2022/06/20 03:02:25;;;;;;;9.07;1.80;;;15.70;99.90;;;;;;7342541;19;108226;-84
2022/06/20 03:04:53;;;;;;;6.07;1.50;;;15.70;99.90;;;;;;7344877;19;108961;-84
2022/06/20 03:07:25;;;;;;;7.15;1.40;;;15.70;99.90;;;;;;7344158;19;108130;-84
2022/06/20 03:10:05;;;;;;;11.20;1.70;;;15.60;99.90;;;;;;7345544;19;108475;-84
2022/06/20 03:12:32;;;;;;;7.47;1.38;;;15.70;99.90;;;;;;7345485;19;109197;-83
2022/06/20 03:15:00;;;;;;;8.27;1.75;;;15.80;99.90;;;;;;7348991;19;108406;-84
2022/06/20 03:17:28;;;;;;;9.48;1.60;;;15.90;99.90;;;;;;7345375;19;110612;-84
2022/06/20 03:19:59;;;;;;;5.85;1.58;;;15.80;99.90;;;;;;7344496;19;108252;-84
2022/06/20 03:22:37;;;;;;;10.98;2.13;;;15.80;99.90;;;;;;7345746;19;108201;-84
2022/06/20 03:25:06;;;;;;;8.77;1.75;;;15.80;99.90;;;;;;7344743;19;109227;-84
2022/06/20 03:27:36;;;;;;;8.48;2.17;;;15.80;99.90;;;;;;7340509;19;108290;-83
2022/06/20 03:30:24;;;;;;;8.77;1.58;;;15.80;99.90;;;;;;7343672;19;109553;-83
2022/06/20 03:32:52;;;;;;;;;;;15.80;99.90;;;;;;7342516;19;108285;-83
2022/06/20 03:35:19;;;;;;;7.27;1.43;;;15.70;99.90;;;;;;7347044;19;107353;-84
2022/06/20 03:37:46;;;;;;;10.10;2.05;;;15.70;99.90;;;;;;7346541;19;111134;-84
2022/06/20 03:40:15;;;;;;;10.60;1.98;;;15.80;99.90;;;;;;7344435;19;107894;-83
2022/06/20 03:42:43;;;;;;;11.35;2.08;;;15.80;99.90;;;;;;7343826;19;108683;-84
2022/06/20 03:45:11;;;;;;;10.85;1.83;;;15.80;99.90;;;;;;7343465;19;108890;-85
2022/06/20 03:48:12;;;;;;;10.02;2.20;;;15.70;99.90;;;;;;7343752;19;107162;-84
2022/06/20 03:50:54;;;;;;;10.95;2.85;;;15.80;99.90;;;;;;7343054;19;107607;-84
2022/06/20 03:53:42;;;;;;;10.35;1.92;;;15.80;99.90;;;;;;7343997;19;108964;-84
2022/06/20 03:56:39;;;;;;;11.73;2.50;;;15.80;99.90;;;;;;7344856;19;107929;-84
2022/06/20 03:59:16;;;;;;;13.43;2.50;;;15.80;99.90;;;;;;7348160;19;108320;-84
2022/06/20 04:01:54;;;;;;;9.23;1.90;;;15.90;99.90;;;;;;7342140;19;108002;-84
2022/06/20 04:04:30;;;;;;;9.70;2.20;;;15.90;99.90;;;;;;7343131;19;108458;-84
2022/06/20 04:07:03;;;;;;;10.77;1.90;;;15.90;99.90;;;;;;7341040;19;111536;-84
2022/06/20 04:12:45;;;;;;;8.50;1.65;;;15.90;99.90;;;;;;7341294;19;107659;-84
2022/06/20 04:15:18;;;;;;;9.15;1.67;;;15.90;99.90;;;;;;7342078;19;107910;-84
2022/06/20 04:18:27;;;;;;;8.38;1.58;;;15.90;99.90;;;;;;7342702;19;107949;-84
2022/06/20 04:20:57;;;;;;;;;;;15.90;99.90;;;;;;7339502;19;108200;-83
2022/06/20 04:23:31;;;;;;;11.00;2.00;;;15.90;99.90;;;;;;7348922;19;109213;-84
2022/06/20 04:26:09;;;;;;;9.18;1.80;;;15.90;99.90;;;;;;7341950;19;108297;-83
2022/06/20 04:28:46;;;;;;;10.73;1.95;;;15.90;99.90;;;;;;7341492;19;109211;-83
2022/06/20 04:31:31;;;;;;;6.70;2.08;;;15.90;99.90;;;;;;7340543;19;108012;-84
2022/06/20 04:34:08;;;;;;;8.38;1.88;;;15.90;99.90;;;;;;7342274;19;110691;-84
2022/06/20 04:37:00;;;;;;;11.70;2.30;;;15.80;99.90;;;;;;7344493;19;109935;-84
2022/06/20 04:39:37;;;;;;;10.82;2.03;;;15.80;99.90;;;;;;7344963;19;108252;-83
2022/06/20 04:42:17;;;;;;;;;;;15.70;99.90;;;;;;7343616;19;112179;-84
2022/06/20 04:45:04;;;;;;;8.10;2.22;;;15.70;99.90;;;;;;7346134;19;109242;-84
2022/06/20 04:47:37;;;;;;;11.00;1.90;;;15.60;99.90;;;;;;7348902;19;107948;-84
2022/06/20 04:50:06;;;;;;;12.65;1.92;;;15.50;99.90;;;;;;7337992;19;109062;-84
2022/06/20 04:52:34;;;;;;;12.68;2.53;;;15.50;99.90;;;;;;7341138;19;108154;-84
2022/06/20 04:55:01;;;;;;;11.73;2.22;;;15.40;99.90;;;;;;7343269;19;110396;-85
2022/06/20 04:57:32;;;;;;;7.65;1.88;;;15.40;99.90;;;;;;7343545;19;109207;-84
2022/06/20 05:00:04;;;;;;;9.60;2.05;;;15.30;99.90;;;;;;7340665;19;107568;-84
2022/06/20 05:02:31;;;;;;;10.77;2.00;;;15.30;99.90;;;;;;7342616;19;108642;-84
2022/06/20 05:05:04;;;;;;;10.95;1.92;;;15.30;99.90;;;;;;7339992;19;108249;-85
2022/06/20 05:07:36;;;;;;;7.50;1.77;;;15.40;99.90;;;;;;7338208;19;109164;-84
2022/06/20 05:10:14;;;;;;;14.98;2.25;;;15.40;99.90;;;;;;7347096;19;108645;-84
2022/06/20 05:12:48;;;;;;;9.75;1.73;;;15.40;99.90;;;;;;7342143;19;107622;-84
2022/06/20 05:15:31;;;;;;;10.02;1.92;;;15.40;99.90;;;;;;7339633;19;109027;-83
2022/06/20 05:18:05;;;;;;;11.40;2.00;;;15.30;99.90;;;;;;7340738;19;108898;-83
2022/06/20 05:20:35;;;;;;;11.45;2.40;;;15.30;99.90;;;;;;7340664;19;110506;-83
2022/06/20 05:23:28;;;;;;;9.48;1.92;;;15.30;99.90;;;;;;7340658;19;108576;-84
2022/06/20 05:25:59;;;;;;;11.10;2.00;;;15.30;99.90;;;;;;7340704;19;111557;-84
2022/06/20 05:28:27;;;;;;;12.10;2.30;;;15.20;99.90;;;;;;7338240;19;108463;-84
2022/06/20 05:30:55;;;;;;;13.65;2.35;;;15.20;99.90;;;;;;7338504;19;111122;-85
2022/06/20 05:33:22;;;;;;;12.88;2.13;;;15.30;99.90;;;;;;7344634;19;108901;-84
2022/06/20 05:35:55;;;;;;;14.52;2.20;;;15.50;99.90;;;;;;7340830;19;108677;-84
2022/06/20 05:38:41;;;;;;;8.63;1.90;;;15.60;99.90;;;;;;7338074;19;108983;-84
2022/06/20 05:41:13;;;;;;;13.38;2.10;;;15.70;99.90;;;;;;7340642;19;107899;-84
2022/06/20 05:43:41;;;;;;;11.20;2.20;;;15.70;99.90;;;;;;7340725;19;108120;-85
2022/06/20 05:46:29;;;;;;;9.70;1.98;;;15.70;99.90;;;;;;7337240;19;108797;-86
2022/06/20 05:49:05;;;;;;;9.48;2.38;;;15.80;99.90;;;;;;7338850;19;108329;-86
2022/06/20 05:51:37;;;;;;;9.85;1.90;;;15.70;99.90;;;;;;7339749;19;108310;-89
2022/06/20 05:54:23;;;;;;;7.70;1.70;;;15.70;99.90;;;;;;7342238;19;111507;-85
2022/06/20 05:56:57;;;;;;;8.15;1.95;;;15.80;99.90;;;;;;7343507;19;107037;-85
2022/06/20 05:59:26;;;;;;;15.23;2.10;;;15.90;99.90;;;;;;7336869;19;108299;-86
2022/06/20 06:02:20;;;;;;;8.90;1.65;;;16.00;99.90;;;;;;7344320;19;107590;-85
2022/06/20 06:05:22;;;;;;;9.38;2.05;;;16.00;99.90;;;;;;7343594;19;107759;-84
2022/06/20 06:08:07;;;;;;;6.82;2.03;;;16.00;99.90;;;;;;7345613;19;109174;-84
2022/06/20 06:11:13;;;;;;;6.97;2.10;;;16.10;99.90;;;;;;7344851;19;109185;-83
2022/06/20 06:13:50;;;;;;;13.07;1.95;;;16.20;99.90;;;;;;7346211;19;108047;-84
2022/06/20 06:16:48;;;;;;;10.67;2.40;;;16.20;99.90;;;;;;7344012;19;109349;-83
2022/06/20 06:19:21;;;;;;;7.68;1.77;;;16.30;99.90;;;;;;7349496;19;108695;-84
2022/06/20 06:21:49;;;;;;;15.68;2.20;;;16.50;99.90;;;;;;7344762;19;112271;-84
2022/06/20 06:24:21;;;;;;;11.70;1.95;;;16.50;99.90;;;;;;7342761;19;108272;-84
2022/06/20 06:26:51;;;;;;;6.50;1.38;;;16.50;99.90;;;;;;7339801;19;110202;-84
2022/06/20 06:29:24;;;;;;;8.77;1.67;;;16.70;99.90;;;;;;7337585;19;109343;-84
2022/06/20 06:31:58;;;;;;;6.55;1.42;;;16.80;99.90;;;;;;7336628;19;108243;-85
2022/06/20 06:34:55;;;;;;;12.30;1.75;;;16.90;99.90;;;;;;7338990;19;110625;-84
2022/06/20 06:37:31;;;;;;;8.70;1.70;;;17.10;99.90;;;;;;7340440;19;107911;-84
2022/06/20 06:40:03;;;;;;;6.15;1.88;;;17.20;99.90;;;;;;7340985;19;107951;-85
2022/06/20 06:42:31;;;;;;;7.15;1.40;;;17.20;99.90;;;;;;7348407;19;108133;-85
2022/06/20 06:44:59;;;;;;;9.90;1.98;;;17.40;99.90;;;;;;7345921;19;108193;-85
2022/06/20 06:47:42;;;;;;;8.55;1.77;;;17.60;99.90;;;;;;7346693;19;108167;-84
2022/06/20 06:50:34;;;;;;;5.97;1.33;;;17.60;99.90;;;;;;7345724;19;112534;-85
2022/06/20 06:53:10;;;;;;;6.47;1.50;;;17.70;99.90;;;;;;7343746;19;111354;-84
2022/06/20 06:55:43;;;;;;;5.45;1.38;;;17.70;99.90;;;;;;7343360;19;108218;-84
2022/06/20 06:58:22;;;;;;;4.93;1.38;;;17.70;99.90;;;;;;7344281;19;109126;-85
2022/06/20 07:01:11;;;;;;;4.03;1.35;;;17.50;99.90;;;;;;7340304;19;108264;-84
2022/06/20 07:03:45;;;;;;;5.93;0.95;;;17.60;99.90;;;;;;7336602;19;109719;-84
2022/06/20 07:06:33;;;;;;;9.27;1.20;;;17.50;99.90;;;;;;7343175;19;109709;-84
2022/06/20 07:09:36;;;;;;;3.88;0.88;;;17.40;99.90;;;;;;7336915;19;111658;-85
2022/06/20 07:12:11;;;;;;;3.80;1.20;;;17.50;99.90;;;;;;7336942;19;108131;-81
2022/06/20 07:14:42;;;;;;;4.28;1.23;;;17.50;99.90;;;;;;7339634;19;107987;-81
2022/06/20 07:17:34;;;;;;;5.70;1.15;;;17.40;99.90;;;;;;7345331;19;108199;-81
2022/06/20 07:20:02;;;;;;;8.18;1.38;;;17.50;99.90;;;;;;7344587;19;110744;-81
2022/06/20 07:22:35;;;;;;;7.05;1.10;;;17.70;99.90;;;;;;7346971;19;109757;-81
2022/06/20 07:25:04;;;;;;;8.05;0.93;;;17.80;99.90;;;;;;7346438;19;108244;-81
2022/06/20 07:27:42;;;;;;;7.13;1.17;;;17.80;99.30;;;;;;7344056;19;107853;-81
2022/06/20 07:30:14;;;;;;;7.63;1.20;;;17.80;99.40;;;;;;7351322;19;108197;-81
2022/06/20 07:33:05;;;;;;;8.02;1.30;;;17.80;99.70;;;;;;7344096;19;108981;-81
2022/06/20 07:35:40;;;;;;;6.88;1.13;;;17.80;99.40;;;;;;7346465;19;107870;-81
2022/06/20 07:38:14;;;;;;;8.63;1.40;;;17.60;99.80;;;;;;7346382;19;108277;-81
2022/06/20 07:40:59;;;;;;;9.23;1.38;;;17.40;99.90;;;;;;7344451;19;108946;-81
2022/06/20 07:43:41;;;;;;;7.13;1.30;;;17.40;99.90;;;;;;7343867;19;107761;-81
2022/06/20 07:46:23;;;;;;;9.77;1.17;;;17.50;99.90;;;;;;7345076;19;108504;-81
2022/06/20 07:48:56;;;;;;;10.82;1.33;;;17.70;99.90;;;;;;7344607;19;108387;-81
2022/06/20 07:51:34;;;;;;;6.90;1.15;;;17.70;99.90;;;;;;7345527;19;108729;-81
2022/06/20 07:54:27;;;;;;;3.50;1.20;;;17.80;99.90;;;;;;7350661;19;107553;-81
2022/06/20 07:57:04;;;;;;;5.55;1.00;;;18.20;99.70;;;;;;7345460;19;108125;-81
2022/06/20 08:00:03;;;;;;;4.78;1.45;;;18.50;99.40;;;;;;7343828;19;108190;-80
2022/06/20 08:02:40;;;;;;;4.63;1.10;;;18.60;98.50;;;;;;7344839;19;109466;-80
2022/06/20 08:05:14;;;;;;;5.93;1.20;;;18.80;98.70;;;;;;7343740;19;109058;-81
2022/06/20 08:07:52;;;;;;;5.53;1.67;;;19.00;98.00;;;;;;7343448;19;108336;-81
2022/06/20 08:10:35;;;;;;;7.07;1.30;;;19.00;97.90;;;;;;7343373;19;109462;-81
2022/06/20 08:13:15;;;;;;;5.35;1.33;;;19.10;97.70;;;;;;7342348;19;108508;-81
2022/06/20 08:15:54;;;;;;;5.53;1.40;;;18.90;97.30;;;;;;7350303;19;108282;-81
2022/06/20 08:18:22;;;;;;;5.43;1.33;;;18.90;97.60;;;;;;7346154;19;108183;-81
2022/06/20 08:20:57;;;;;;;4.38;1.23;;;18.90;98.00;;;;;;7344021;19;108181;-81
2022/06/20 08:23:36;;;;;;;5.07;1.50;;;18.90;97.60;;;;;;7345302;19;109172;-81
2022/06/20 08:26:08;;;;;;;9.85;1.90;;;18.70;97.50;;;;;;7341499;19;107891;-81
2022/06/20 08:28:47;;;;;;;7.30;1.73;;;18.70;97.90;;;;;;7344114;19;108159;-81
2022/06/20 08:31:35;;;;;;;10.68;2.25;;;18.70;97.70;;;;;;7342354;19;108969;-81
2022/06/20 08:34:11;;;;;;;6.22;1.88;;;18.90;97.90;;;;;;7341702;19;108680;-81
2022/06/20 08:36:53;;;;;;;6.45;1.77;;;19.20;97.50;;;;;;7344502;19;111363;-81
2022/06/20 08:39:20;;;;;;;8.45;1.30;;;19.30;96.90;;;;;;7347908;19;108888;-81
2022/06/20 08:42:02;;;;;;;3.13;1.15;;;19.30;96.60;;;;;;7343020;19;108558;-82
2022/06/20 08:45:13;;;;;;;4.80;1.27;;;19.30;95.90;;;;;;7342483;19;110237;-81
2022/06/20 08:48:14;;;;;;;5.20;1.35;;;19.50;95.80;;;;;;7344719;19;108311;-81
2022/06/20 08:51:08;;;;;;;4.22;1.00;;;19.60;96.20;;;;;;7344394;19;112028;-81
2022/06/20 08:53:59;;;;;;;6.80;1.10;;;19.80;95.30;;;;;;7340309;19;109430;-82
2022/06/20 08:56:51;;;;;;;11.15;1.20;;;19.90;94.90;;;;;;7345119;19;109373;-81
2022/06/20 08:59:26;;;;;;;2.78;1.20;;;19.90;94.60;;;;;;7344062;19;108583;-81
2022/06/20 09:02:06;;;;;;;4.50;1.33;;;19.80;94.40;;;;;;7342241;19;112380;-82
2022/06/20 09:04:55;;;;;;;5.45;1.15;;;19.80;94.30;;;;;;7349276;19;108163;-81
2022/06/20 09:07:42;;;;;;;3.03;1.20;;;19.80;93.80;;;;;;7343865;19;109078;-81
2022/06/20 09:10:25;;;;;;;3.83;1.40;;;19.90;94.00;;;;;;7343146;19;107157;-81
2022/06/20 09:13:00;;;;;;;4.65;1.30;;;19.70;93.80;;;;;;7341345;19;109124;-82
2022/06/20 09:15:50;;;;;;;4.38;1.00;;;19.70;93.80;;;;;;7342767;19;109072;-81
2022/06/20 09:18:32;;;;;;;4.60;1.20;;;19.70;93.40;;;;;;7343571;19;108248;-82
2022/06/20 09:21:08;;;;;;;6.18;1.40;;;19.70;93.70;;;;;;7342876;19;108207;-82
2022/06/20 09:23:41;;;;;;;6.13;1.30;;;19.90;94.10;;;;;;7342309;19;109070;-81
2022/06/20 09:26:23;;;;;;;4.75;1.27;;;20.10;94.20;;;;;;7340232;19;108137;-80
2022/06/20 09:29:28;;;;;;;4.47;1.30;;;20.40;93.40;;;;;;7347331;19;108285;-82
2022/06/20 09:32:33;;;;;;;7.82;1.30;;;20.50;93.50;;;;;;7338265;19;108683;-83
2022/06/20 09:35:18;;;;;;;6.43;1.40;;;20.60;93.00;;;;;;7335569;19;107854;-84
2022/06/20 09:38:17;;;;;;;5.45;1.48;;;20.60;91.80;;;;;;7337886;19;110298;-84
2022/06/20 09:41:01;;;;;;;4.88;1.42;;;20.40;91.40;;;;;;7336081;19;107966;-82
2022/06/20 09:43:50;;;;;;;5.95;1.20;;;20.20;92.00;;;;;;7338102;19;108443;-83
2022/06/20 09:46:39;;;;;;;7.32;2.20;;;20.40;93.00;;;;;;7337967;19;109247;-83
2022/06/20 09:49:14;;;;;;;5.13;1.88;;;20.70;92.50;;;;;;7337374;19;107366;-83
2022/06/20 09:52:20;;;;;;;7.38;1.85;;;21.10;92.10;;;;;;7337775;19;108177;-83
2022/06/20 09:54:59;;;;;;;8.60;1.85;;;21.20;92.40;;;;;;7343064;19;108516;-85
2022/06/20 09:57:41;;;;;;;6.25;1.45;;;21.10;92.00;;;;;;7337345;19;108161;-83
2022/06/20 10:00:18;;;;;;;5.95;1.50;;;21.20;91.90;;;;;;7337728;19;109606;-82
2022/06/20 10:02:51;;;;;;;9.98;1.48;;;21.20;91.80;;;;;;7337561;19;108697;-83
2022/06/20 10:05:32;;;;;;;5.47;1.40;;;21.20;91.80;;;;;;7338225;19;108525;-83
2022/06/20 10:08:02;;;;;;;5.65;1.40;;;21.30;91.50;;;;;;7341961;19;108661;-82
2022/06/20 10:10:42;;;;;;;4.82;1.35;;;21.20;91.20;;;;;;7340168;19;110782;-82
2022/06/20 10:13:42;;;;;;;6.53;1.40;;;21.00;90.90;;;;;;7340055;19;108081;-82
2022/06/20 10:16:21;;;;;;;4.50;1.20;;;21.00;90.90;;;;;;7334790;19;108228;-83
2022/06/20 10:19:18;;;;;;;6.72;1.23;;;21.20;91.40;;;;;;7341822;19;108618;-82
2022/06/20 10:21:52;;;;;;;4.18;1.20;;;21.40;89.00;;;;;;7338276;19;109026;-82
2022/06/20 10:24:27;;;;;;;4.97;1.38;;;21.40;90.60;;;;;;7341985;19;108007;-82
2022/06/20 10:27:22;;;;;;;5.90;1.50;;;21.50;90.20;;;;;;7339138;19;108582;-83
2022/06/20 10:30:14;;;;;;;5.57;1.65;;;21.60;90.70;;;;;;7338834;19;108935;-82
2022/06/20 10:33:05;;;;;;;3.80;1.63;;;21.70;90.30;;;;;;7336536;19;108991;-82
2022/06/20 10:35:47;;;;;;;8.02;1.40;;;21.80;90.50;;;;;;7337804;19;108449;-82
2022/06/20 10:38:23;;;;;;;5.90;1.40;;;22.00;91.00;;;;;;7338991;19;108819;-82
2022/06/20 10:40:56;;;;;;;4.85;1.40;;;22.40;91.10;;;;;;7341949;19;108526;-83
2022/06/20 10:43:42;;;;;;;7.72;1.88;;;22.80;91.20;;;;;;7339221;19;109358;-82
2022/06/20 10:46:26;;;;;;;3.25;1.13;;;23.10;90.80;;;;;;7336187;19;109202;-83
2022/06/20 10:49:27;;;;;;;5.22;1.50;;;23.30;89.40;;;;;;7340998;19;108248;-83
2022/06/20 10:52:01;;;;;;;5.47;1.35;;;23.30;84.20;;;;;;7344872;19;108715;-83
2022/06/20 10:55:04;;;;;;;4.80;1.55;;;23.00;85.80;;;;;;7344371;19;108296;-82
2022/06/20 10:58:07;;;;;;;7.25;1.83;;;22.80;85.60;;;;;;7343371;19;110810;-83
2022/06/20 11:00:42;;;;;;;6.25;1.48;;;22.60;86.30;;;;;;7346889;19;109334;-83
2022/06/20 11:03:57;;;;;;;7.88;1.52;;;22.50;88.10;;;;;;7346062;19;108578;-84
2022/06/20 11:06:59;;;;;;;5.20;1.50;;;22.60;87.70;;;;;;7350274;19;108733;-84
2022/06/20 11:09:50;;;;;;;6.68;1.73;;;22.30;84.60;;;;;;7347139;19;109099;-84
2022/06/20 11:12:34;;;;;;;5.95;1.80;;;22.20;86.20;;;;;;7346577;19;111112;-84
2022/06/20 11:15:19;;;;;;;6.13;1.75;;;22.30;85.30;;;;;;7345129;19;110859;-84
2022/06/20 11:18:12;;;;;;;6.45;1.60;;;22.40;83.40;;;;;;7346794;19;108217;-83
2022/06/20 11:20:45;;;;;;;5.38;1.88;;;22.60;85.00;;;;;;7344825;19;108087;-85
2022/06/20 11:23:39;;;;;;;4.57;1.65;;;22.80;84.80;;;;;;7346593;19;109099;-86
2022/06/20 11:26:35;;;;;;;5.00;1.73;;;22.80;83.10;;;;;;7344414;19;108261;-85
2022/06/20 11:29:38;;;;;;;8.65;1.88;;;22.90;83.00;;;;;;7346099;19;108257;-87
2022/06/20 11:32:51;;;;;;;10.00;2.10;;;23.10;81.70;;;;;;7352037;19;108858;-86
2022/06/20 11:35:46;;;;;;;13.02;2.13;;;22.90;81.70;;;;;;7345974;19;108282;-86
2022/06/20 11:38:35;;;;;;;4.18;1.80;;;22.60;80.50;;;;;;7343599;19;108571;-85
2022/06/20 11:41:05;;;;;;;4.78;1.67;;;22.40;82.10;;;;;;7343600;19;109166;-85
2022/06/20 11:43:50;;;;;;;4.63;1.63;;;22.40;83.70;;;;;;7344807;19;108515;-86
2022/06/20 11:46:55;;;;;;;7.57;1.90;;;22.60;83.10;;;;;;7345875;19;109483;-86
2022/06/20 11:50:06;;;;;;;6.03;1.92;;;22.70;82.30;;;;;;7344497;19;110416;-86
2022/06/20 11:53:01;;;;;;;7.45;2.00;;;22.80;80.70;;;;;;7342427;19;109818;-85
2022/06/20 11:55:47;;;;;;;6.28;1.90;;;22.90;81.10;;;;;;7344067;19;109039;-85
2022/06/20 11:58:27;;;;;;;8.45;1.92;;;23.00;81.40;;;;;;7351053;19;109743;-86
2022/06/20 12:01:23;;;;;;;7.53;2.15;;;23.10;83.40;;;;;;7345099;19;108270;-85
2022/06/20 12:04:13;;;;;;;9.38;1.77;;;23.20;79.30;;;;;;7340662;19;108398;-87
2022/06/20 12:06:46;;;;;;;5.63;1.73;;;23.30;81.60;;;;;;7342668;19;107289;-86
2022/06/20 12:09:38;;;;;;;5.70;1.70;;;23.50;80.80;;;;;;7344555;19;108318;-86
2022/06/20 12:12:14;;;;;;;7.88;1.90;;;23.70;77.50;;;;;;7342848;19;109660;-86
2022/06/20 12:14:43;;;;;;;5.47;2.00;;;24.00;80.00;;;;;;7342273;19;107147;-85
2022/06/20 12:17:35;;;;;;;8.30;2.15;;;24.30;77.60;;;;;;7344813;19;109104;-85
2022/06/20 12:25:46;;;;;;;6.03;1.98;;;24.30;76.40;;;;;;7343937;19;109686;-87
2022/06/20 12:28:22;;;;;;;7.68;1.85;;;24.30;75.60;;;;;;7338914;19;110717;-87
2022/06/20 12:30:58;;;;;;;7.53;1.70;;;24.20;75.10;;;;;;7342450;19;109392;-87
2022/06/20 12:33:27;;;;;;;9.73;1.80;;;24.10;73.30;;;;;;7343869;19;108001;-85
2022/06/20 12:36:00;;;;;;;5.32;2.00;;;23.80;73.40;;;;;;7344047;19;111021;-85
2022/06/20 12:39:05;;;;;;;8.68;2.10;;;23.70;73.20;;;;;;7344030;19;109194;-85
2022/06/20 12:41:39;;;;;;;7.47;1.80;;;23.80;75.30;;;;;;7340187;19;111206;-86
2022/06/20 12:44:15;;;;;;;5.75;2.10;;;23.90;75.00;;;;;;7343499;19;108197;-87
2022/06/20 12:47:10;;;;;;;4.97;2.00;;;24.00;74.80;;;;;;7346758;19;108868;-85
2022/06/20 12:50:13;;;;;;;5.22;1.55;;;24.20;73.60;;;;;;7342393;19;107997;-86
2022/06/20 12:53:18;;;;;;;5.65;1.73;;;24.50;76.70;;;;;;7342480;19;109305;-86
2022/06/20 12:56:01;;;;;;;7.57;2.03;;;24.90;75.50;;;;;;7341789;19;108364;-87
2022/06/20 12:58:49;;;;;;;4.63;1.40;;;24.80;71.40;;;;;;7342599;19;108354;-86
2022/06/20 13:06:42;;;;;;;7.65;1.70;;;24.80;71.90;;;;;;7341052;19;108124;-87
2022/06/20 13:09:42;;;;;;;6.97;1.85;;;25.20;72.30;;;;;;7342385;19;107263;-86
2022/06/20 13:12:28;;;;;;;5.25;2.13;;;25.20;70.90;;;;;;7344473;19;111322;-85
2022/06/20 13:15:15;;;;;;;7.35;2.10;;;25.20;73.60;;;;;;7339745;19;108615;-85
2022/06/20 13:18:04;;;;;;;8.15;2.08;;;25.10;70.90;;;;;;7340859;19;109108;-87
2022/06/20 13:21:06;;;;;;;12.18;1.85;;;25.00;70.40;;;;;;7339273;19;107980;-86
2022/06/20 13:24:07;;;;;;;9.65;1.85;;;25.00;71.50;;;;;;7339064;19;108555;-86
2022/06/20 13:26:37;;;;;;;6.65;1.88;;;24.80;70.10;;;;;;7341113;19;113203;-85
2022/06/20 13:29:07;;;;;;;7.30;1.85;;;24.60;73.40;;;;;;7342119;19;106970;-86
2022/06/20 13:31:39;;;;;;;9.73;2.20;;;24.60;72.70;;;;;;7341723;19;108389;-86
2022/06/20 13:34:41;;;;;;;7.70;2.13;;;24.60;71.40;;;;;;7338446;19;108610;-85
2022/06/20 13:37:31;;;;;;;17.45;2.20;;;24.50;72.30;;;;;;7347175;19;108000;-86
2022/06/20 13:40:23;;;;;;;9.38;2.15;;;24.50;72.00;;;;;;7340592;19;108993;-86
2022/06/20 13:43:23;;;;;;;5.10;1.70;;;24.50;72.80;;;;;;7342243;19;108372;-86
2022/06/20 13:46:07;;;;;;;4.60;2.03;;;24.50;72.60;;;;;;7341939;19;108380;-86
2022/06/20 13:49:00;;;;;;;6.28;1.85;;;24.40;71.90;;;;;;7339329;19;108323;-86
2022/06/20 13:52:06;;;;;;;4.97;1.90;;;24.30;73.10;;;;;;7341129;19;108295;-86
2022/06/20 13:54:45;;;;;;;5.93;1.98;;;24.30;72.60;;;;;;7339840;19;112069;-85
2022/06/20 13:57:41;;;;;;;5.55;1.65;;;24.60;73.50;;;;;;7341678;19;109473;-86
2022/06/20 14:00:25;;;;;;;6.85;1.98;;;24.90;71.60;;;;;;7340505;19;107313;-85